Flight Track Log - Related Links

Times and Time Zones

All times are in EDT time to prevent confusion due to time zone crossing. See the EJA982 flight status page for this flight to view local times or setup timezone preferences in your user account.

Time Position Orientation Groundspeed Altitude Reporting Facility
EDT Latitude Longitude Course Direction KTS MPH feet Rate Location/Type
Wed 07:03:23 PM 48.7500 -122.5333 116° Southeast 120 138 1,500  Level Vancouver Center
Wed 07:04:00 PM 48.1586 -122.4381 113° Southeast  Level FlightAware Approximate
Wed 07:04:23 PM 48.7000 -122.5667 204° Southwest 240 276 5,000  Level Vancouver Center
Wed 07:05:00 PM 48.1083 -122.2624 113° Southeast  Level FlightAware Approximate
Wed 07:05:23 PM 48.6333 -122.5667 180° South 280 322 7,400  Level Vancouver Center
Wed 07:06:00 PM 48.0555 -122.0886 115° Southeast  Level FlightAware Approximate
Wed 07:06:13 PM 48.5714 -122.6125 206° Southwest 292 336 9,000  Level Seattle Center
Wed 07:07:00 PM 48.0020 -121.9154 113° Southeast  Level FlightAware Approximate
Wed 07:07:14 PM 48.4950 -122.6383 193° South 287 330 9,400  Level Seattle Center
Wed 07:08:00 PM 47.9570 -121.7376 116° Southeast  Level FlightAware Approximate
Wed 07:08:15 PM 48.4161 -122.6653 193° South 296 341 11,200  Level Seattle Center
Wed 07:09:16 PM 48.3242 -122.6961 193° South 336 387 13,000 1,770 Climbing Seattle Center
Wed 07:10:17 PM 48.2283 -122.6533 163° South 374 430 14,800 1,770 Climbing Seattle Center
Wed 07:11:18 PM 48.1697 -122.5142 122° Southeast 400 460 16,600 1,756 Climbing Seattle Center
Wed 07:12:20 PM 48.1169 -122.3633 118° Southeast 409 471 18,400 1,902 Climbing Seattle Center
Wed 07:13:21 PM 48.0514 -122.1783 118° Southeast 418 481 20,500 1,918 Climbing Seattle Center
Wed 07:14:22 PM 48.0489 -121.9969 91° East 435 501 22,300 1,770 Climbing Seattle Center
Wed 07:15:23 PM 48.0519 -121.8156 88° East 441 507 24,100 1,770 Climbing Seattle Center
Wed 07:16:24 PM 47.9967 -121.6536 117° Southeast 437 503 25,900 1,770 Climbing Seattle Center
Wed 07:17:25 PM 47.9353 -121.4942 120° Southeast 444 511 27,700 1,770 Climbing Seattle Center
Wed 07:18:26 PM 47.8725 -121.3319 120° Southeast 452 520 29,500 1,770 Climbing Seattle Center
Wed 07:19:27 PM 47.8086 -121.1656 120° Southeast 462 532 31,300 1,770 Climbing Seattle Center
Wed 07:20:28 PM 47.7431 -120.9983 120° Southeast 471 542 33,100 1,854 Climbing Seattle Center
Wed 07:21:30 PM 47.6675 -120.8031 120° Southeast 481 554 35,100 1,854 Climbing Seattle Center
Wed 07:22:31 PM 47.6003 -120.6308 120° Southeast 485 558 36,900 1,770 Climbing Seattle Center
Wed 07:23:32 PM 47.5319 -120.4589 120° Southeast 487 560 38,700 1,770 Climbing Seattle Center
Wed 07:24:33 PM 47.4647 -120.2872 120° Southeast 485 558 40,500 1,131 Climbing Seattle Center
Wed 07:25:34 PM 47.3964 -120.1175 121° Southeast 484 557 41,000 246 Climbing Seattle Center
Wed 07:26:35 PM 47.3242 -119.9381 121° Southeast 507 583 41,000  Level Seattle Center
Wed 07:27:36 PM 47.2500 -119.7542 121° Southeast 523 602 41,000  Level Seattle Center
Wed 07:28:38 PM 47.1733 -119.5681 121° Southeast 534 615 41,000  Level Seattle Center
Wed 07:29:39 PM 47.1014 -119.3917 121° Southeast 516 594 41,000  Level Seattle Center
Wed 07:30:40 PM 47.0147 -119.1808 121° Southeast 507 583 41,000  Level Seattle Center
Wed 07:31:41 PM 46.9414 -119.0033 121° Southeast 508 585 41,000  Level Seattle Center
Wed 07:32:42 PM 46.8667 -118.8261 122° Southeast 511 588 41,000  Level Seattle Center
Wed 07:33:43 PM 46.7939 -118.6511 121° Southeast 511 588 41,000  Level Seattle Center
Wed 07:34:45 PM 46.7194 -118.4756 122° Southeast 512 589 41,000 -49 Level Seattle Center
Wed 07:35:46 PM 46.6436 -118.3011 122° Southeast 512 589 40,900  Descending Seattle Center
Wed 07:36:47 PM 46.5694 -118.1253 121° Southeast 513 590 41,000 49 Climbing Seattle Center
Wed 07:37:48 PM 46.4933 -117.9519 122° Southeast 513 590 41,000  Level Seattle Center
Wed 07:38:49 PM 46.4178 -117.7786 122° Southeast 513 590 41,000  Level Seattle Center
Wed 07:39:50 PM 46.3261 -117.5711 123° Southeast 514 592 41,000  Level Seattle Center
Wed 07:40:52 PM 46.2489 -117.3967 123° Southeast 517 595 41,000  Level Seattle Center
Wed 07:41:53 PM 46.1711 -117.2222 123° Southeast 519 597 41,000  Level Seattle Center
Wed 07:42:54 PM 46.0931 -117.0486 123° Southeast 519 597 41,000  Level Seattle Center
Wed 07:43:55 PM 46.0161 -116.8708 122° Southeast 524 603 41,000 -49 Level Seattle Center
Wed 07:44:56 PM 45.9369 -116.7006 124° Southeast 518 596 40,900 -49 Descending Seattle Center
Wed 07:45:57 PM 45.8583 -116.5275 123° Southeast 519 597 40,900  Level Seattle Center
Wed 07:46:59 PM 45.7794 -116.3553 123° Southeast 520 598 40,900 49 Level Seattle Center
Wed 07:48:00 PM 45.7000 -116.1844 124° Southeast 519 597 41,000 49 Climbing Seattle Center
Wed 07:49:01 PM 45.6056 -115.9744 123° Southeast 520 598 41,000  Level Seattle Center
Wed 07:50:02 PM 45.5286 -115.8094 124° Southeast 521 600 41,000  Level Seattle Center
Wed 07:51:03 PM 45.4494 -115.6439 124° Southeast 524 603 41,000  Level Seattle Center
Wed 07:52:04 PM 45.3578 -115.4481 124° Southeast 532 612 41,000  Level Seattle Center
Wed 07:53:06 PM 45.2789 -115.2817 124° Southeast 531 611 41,000  Level Seattle Center
Wed 07:54:07 PM 45.2000 -115.1164 124° Southeast 528 608 41,000  Level Seattle Center
Wed 07:55:08 PM 45.1069 -114.9242 124° Southeast 528 608 41,000  Level Seattle Center
Wed 07:56:09 PM 45.0269 -114.7592 124° Southeast 530 610 41,000  Level Seattle Center
Wed 07:56:39 PM 44.9881 -114.6783 124° Southeast 528 608 41,000  Level Salt Lake Center
Wed 07:57:41 PM 44.8944 -114.4861 124° Southeast 530 610 41,000  Level Salt Lake Center
Wed 07:58:43 PM 44.8125 -114.3222 125° Southeast 532 612 41,000  Level Salt Lake Center
Wed 07:59:45 PM 44.7181 -114.1308 125° Southeast 532 612 41,000  Level Salt Lake Center
Wed 08:00:47 PM 44.6361 -113.9661 125° Southeast 536 617 41,000  Level Salt Lake Center
Wed 08:01:49 PM 44.5403 -113.7769 125° Southeast 534 615 41,000  Level Salt Lake Center
Wed 08:02:51 PM 44.4603 -113.6153 125° Southeast 530 610 41,000  Level Salt Lake Center
Wed 08:03:53 PM 44.3789 -113.4536 125° Southeast 529 609 41,000  Level Salt Lake Center
Wed 08:04:55 PM 44.2831 -113.2672 126° Southeast 529 609 41,000  Level Salt Lake Center
Wed 08:05:57 PM 44.2019 -113.1081 125° Southeast 527 606 41,000  Level Salt Lake Center
Wed 08:06:59 PM 44.1072 -112.9231 125° Southeast 525 604 41,000  Level Salt Lake Center
Wed 08:08:01 PM 44.0256 -112.7650 126° Southeast 525 604 41,000  Level Salt Lake Center
Wed 08:09:03 PM 43.9281 -112.5831 127° Southeast 526 605 41,000  Level Salt Lake Center
Wed 08:10:05 PM 43.8481 -112.4267 125° Southeast 522 601 41,000  Level Salt Lake Center
Wed 08:11:07 PM 43.7583 -112.2608 127° Southeast 520 598 41,000  Level Salt Lake Center
Wed 08:12:09 PM 43.6744 -112.1017 126° Southeast 514 592 41,000  Level Salt Lake Center
Wed 08:13:10 PM 43.5881 -111.9417 127° Southeast 519 597 41,000 -585 Level Salt Lake Center
Wed 08:14:12 PM 43.5019 -111.7811 126° Southeast 521 600 39,800 -1,258 Descending Salt Lake Center
Wed 08:15:14 PM 43.3994 -111.5914 127° Southeast 516 594 38,400 -1,258 Descending Salt Lake Center
Wed 08:16:16 PM 43.3122 -111.4317 127° Southeast 520 598 37,200 -1,210 Descending Salt Lake Center
Wed 08:17:18 PM 43.2289 -111.2764 126° Southeast 519 597 35,900 -1,210 Descending Salt Lake Center
Wed 08:18:20 PM 43.1431 -111.1189 127° Southeast 521 600 34,700 -1,500 Descending Salt Lake Center
Wed 08:19:22 PM 43.0561 -110.9608 127° Southeast 522 601 32,800 -2,081 Descending Salt Lake Center
Wed 08:20:24 PM 42.9486 -110.7681 127° Southeast 534 615 30,400 -2,226 Descending Salt Lake Center
Wed 08:21:26 PM 42.8603 -110.6083 127° Southeast 531 611 28,200 -3,435 Descending Salt Lake Center
Wed 08:22:28 PM 42.7717 -110.4542 128° Southeast 520 598 23,300 -4,403 Descending Salt Lake Center
Wed 08:23:30 PM 42.6931 -110.3133 127° Southeast 497 572 19,100 -4,258 Descending Salt Lake Center
Wed 08:24:32 PM 42.6069 -110.1614 128° Southeast 463 533 14,500 -4,452 Descending Salt Lake Center
Wed 08:26:00 PM 42.7974 -109.8110 331° Northwest  Level Estimated
Wed 08:33:00 PM 42.7974 -109.8110 324° Northwest  Level Estimated
Wed 08:34:00 PM 42.7974 -109.8110 324° Northwest  Level Estimated
Wed 08:35:00 PM 42.7974 -109.8110 324° Northwest  Level Estimated
Wed 08:36:00 PM 42.7974 -109.8110 324° Northwest  Level Estimated
Wed 08:37:00 PM 42.7974 -109.8110 324° Northwest  Level Estimated
Wed 08:38:00 PM 42.7974 -109.8110 324° Northwest  Level Estimated
Wed 08:39:00 PM 42.7974 -109.8110 324° Northwest  Level Estimated
Wed 08:40:00 PM 42.7974 -109.8110 324° Northwest  Level Estimated

Login

Don't have an account? Register now (free) for customized features, flight alerts, and more!